Tuesday, August 21, 2018, 12:03 AM GMT
Back to Local

CWIG, Ile Aux Grues, Que.

Location: , , Canada Lat: 47.067
Local Time: 12:03 AM GMT ( 0:03 GMT) Lon: -70.533
Time Zone: GMT Elev: 59 ft

Show me the last for .
Show Coded

Time T Td Feel RH Dir Speed Gust Alt SLP Vis Weather Sky Remarks
2018-08-20 23:00 - - - 0 250° 6 - - - 0 None
2018-08-20 22:00 - - - 0 250° 5 - - - 0 None
2018-08-20 21:00 - - - 0 240° 7 - - - 0 None
2018-08-20 20:00 - - - 0 240° 7 - - - 0 None
2018-08-20 19:00 - - - 0 260° 7 - - - 0 None
2018-08-20 18:00 - - - 0 260° 8 - - - 0 None
2018-08-20 17:00 - - - 0 260° 8 - - - 0 None
2018-08-20 16:00 - - - 0 240° 7 - - - 0 None
2018-08-20 15:00 - - - 0 250° 7 - - - 0 None
2018-08-20 14:00 - - - 0 220° 7 - - - 0 None
2018-08-20 13:00 - - - 0 250° 5 - - - 0 None
2018-08-20 12:00 - - - 0 200° 5 - - - 0 None
2018-08-20 11:00 - - - 0 180° 5 - - - 0 None
2018-08-20 10:00 - - - 0 130° 5 - - - 0 None
2018-08-20 09:00 - - - 0 160° 3 - - - 0 None
2018-08-20 08:00 - - - 0 20° 3 - - - 0 None
2018-08-20 07:00 - - - 0 20° 2 - - - 0 None
2018-08-20 06:00 - - - 0 10° 6 - - - 0 None
2018-08-20 05:00 - - - 0 40° 7 - - - 0 None
2018-08-20 04:00 - - - 0 40° 7 - - - 0 None
2018-08-20 03:00 - - - 0 30° 6 - - - 0 None
2018-08-20 02:00 - - - 0 40° 7 - - - 0 None
2018-08-20 01:00 - - - 0 30° 7 - - - 0 None

Support USWX by starting your Amazon purchase here.